createdAt,value
2019-05-22T00:01:41.232Z,99.90
2019-05-22T00:04:13.552Z,99.90
2019-05-22T00:06:45.231Z,99.90
2019-05-22T00:09:20.453Z,99.90
2019-05-22T00:11:49.719Z,99.90
2019-05-22T00:14:18.434Z,99.90
2019-05-22T00:16:47.807Z,99.90
2019-05-22T00:19:16.666Z,99.90
2019-05-22T00:21:49.554Z,99.90
2019-05-22T00:24:19.496Z,99.90
2019-05-22T00:26:49.708Z,99.90
2019-05-22T00:29:18.772Z,99.90
2019-05-22T00:31:49.283Z,99.90
2019-05-22T00:34:18.001Z,99.90
2019-05-22T00:36:47.459Z,99.90
2019-05-22T00:39:18.503Z,99.90
2019-05-22T00:41:50.128Z,99.90
2019-05-22T00:44:19.616Z,99.90
2019-05-22T00:46:50.203Z,99.90
2019-05-22T00:49:21.603Z,99.90
2019-05-22T00:52:04.709Z,99.90
2019-05-22T00:54:51.041Z,99.90
2019-05-22T00:57:30.446Z,99.90
2019-05-22T01:00:04.317Z,99.90
2019-05-22T01:02:36.459Z,99.90
2019-05-22T01:05:06.548Z,99.90
2019-05-22T01:07:39.288Z,99.90
2019-05-22T01:10:14.951Z,99.90
2019-05-22T01:12:47.095Z,99.90
2019-05-22T01:15:26.389Z,99.90
2019-05-22T01:17:56.465Z,99.90
2019-05-22T01:20:28.710Z,99.90
2019-05-22T01:22:59.400Z,99.90
2019-05-22T01:25:34.130Z,99.90
2019-05-22T01:28:04.355Z,99.90
2019-05-22T01:30:44.099Z,99.90
2019-05-22T01:33:26.315Z,99.90
2019-05-22T01:36:03.132Z,99.90
2019-05-22T01:38:33.584Z,99.90
2019-05-22T01:41:40.728Z,99.90
2019-05-22T01:44:11.181Z,99.90
2019-05-22T01:47:00.500Z,99.90
2019-05-22T01:49:30.904Z,99.90
2019-05-22T01:52:01.173Z,99.90
2019-05-22T01:54:30.270Z,99.90
2019-05-22T01:57:07.292Z,99.90
2019-05-22T01:59:36.741Z,99.90
2019-05-22T02:02:07.123Z,99.90
2019-05-22T02:04:36.484Z,99.90
2019-05-22T02:07:07.550Z,99.90
2019-05-22T02:09:40.920Z,99.90
2019-05-22T02:12:16.675Z,99.90
2019-05-22T02:14:48.213Z,99.90
2019-05-22T02:17:19.927Z,99.90
2019-05-22T02:19:50.091Z,99.90
2019-05-22T02:22:19.987Z,99.90
2019-05-22T02:24:50.005Z,99.90
2019-05-22T02:27:20.124Z,99.90
2019-05-22T02:29:49.265Z,99.90
2019-05-22T02:32:21.540Z,99.90
2019-05-22T02:34:50.640Z,99.90
2019-05-22T02:37:20.400Z,99.90
2019-05-22T02:39:50.751Z,99.90
2019-05-22T02:42:28.441Z,99.90
2019-05-22T02:44:58.624Z,99.90
2019-05-22T02:47:46.779Z,99.90
2019-05-22T02:50:16.680Z,99.90
2019-05-22T02:52:45.378Z,99.90
2019-05-22T02:55:13.883Z,99.90
2019-05-22T02:57:42.739Z,99.90
2019-05-22T03:00:14.372Z,99.90
2019-05-22T03:02:53.590Z,99.90
2019-05-22T03:05:24.747Z,99.90
2019-05-22T03:07:58.288Z,99.90
2019-05-22T03:10:27.924Z,99.90
2019-05-22T03:12:56.819Z,99.90
2019-05-22T03:15:26.286Z,99.90
2019-05-22T03:18:21.444Z,99.90
2019-05-22T03:20:52.667Z,99.90
2019-05-22T03:23:51.224Z,99.90
2019-05-22T03:26:40.627Z,99.90
2019-05-22T03:29:10.720Z,99.90
2019-05-22T03:31:39.521Z,99.90
2019-05-22T03:34:08.313Z,99.90
2019-05-22T03:36:37.201Z,99.90
2019-05-22T03:39:07.870Z,99.90
2019-05-22T03:41:37.559Z,99.90
2019-05-22T03:44:06.352Z,99.90
2019-05-22T03:46:38.060Z,99.90
2019-05-22T03:49:26.162Z,99.90
2019-05-22T03:51:40.587Z,99.90
2019-05-22T03:54:09.167Z,99.90
2019-05-22T03:56:41.041Z,99.90
2019-05-22T03:59:11.462Z,99.90
2019-05-22T04:01:42.086Z,99.90
2019-05-22T04:04:16.701Z,99.90
2019-05-22T04:06:45.196Z,99.90
2019-05-22T04:09:20.570Z,99.90
2019-05-22T04:11:50.380Z,99.90
2019-05-22T04:14:20.367Z,99.90
2019-05-22T04:16:49.936Z,99.90
2019-05-22T04:19:49.626Z,99.90
2019-05-22T04:22:10.417Z,99.90
2019-05-22T04:24:41.393Z,99.90
2019-05-22T04:27:10.788Z,99.90
2019-05-22T04:29:39.586Z,99.90
2019-05-22T04:35:07.341Z,99.90
2019-05-22T04:37:36.161Z,99.90
2019-05-22T04:40:25.753Z,99.90
2019-05-22T04:42:58.952Z,99.90
2019-05-22T04:45:28.600Z,99.90
2019-05-22T04:48:02.664Z,99.90
2019-05-22T04:50:32.416Z,99.90
2019-05-22T04:53:02.147Z,99.90
2019-05-22T04:55:32.824Z,99.90
2019-05-22T04:58:04.616Z,99.90
2019-05-22T05:00:35.671Z,99.90
2019-05-22T05:03:05.328Z,99.90
2019-05-22T05:05:42.008Z,99.90
2019-05-22T05:08:12.059Z,99.90
2019-05-22T05:10:42.088Z,99.90
2019-05-22T05:13:10.792Z,99.90
2019-05-22T05:15:39.227Z,99.90
2019-05-22T05:18:08.301Z,99.90
2019-05-22T05:20:36.943Z,99.90
2019-05-22T05:23:05.455Z,99.90
2019-05-22T05:25:35.373Z,99.90
2019-05-22T05:28:07.096Z,99.90
2019-05-22T05:30:35.606Z,99.90
2019-05-22T05:33:04.968Z,99.90
2019-05-22T05:35:35.908Z,99.90
2019-05-22T05:38:05.493Z,99.90
2019-05-22T05:40:38.276Z,99.90
2019-05-22T05:43:09.925Z,99.90
2019-05-22T05:45:42.299Z,99.90
2019-05-22T05:48:19.669Z,99.90
2019-05-22T05:51:07.183Z,99.90
2019-05-22T05:53:58.503Z,99.90
2019-05-22T05:56:30.198Z,99.90
2019-05-22T05:59:02.936Z,99.90
2019-05-22T06:01:39.042Z,99.90
2019-05-22T06:04:08.621Z,99.90
2019-05-22T06:07:02.878Z,99.90
2019-05-22T06:09:32.419Z,99.90
2019-05-22T06:12:05.659Z,99.90
2019-05-22T06:14:35.715Z,99.90
2019-05-22T06:17:33.160Z,99.90
2019-05-22T06:20:05.837Z,99.90
2019-05-22T06:22:34.547Z,99.90
2019-05-22T06:27:58.019Z,99.90
2019-05-22T06:30:42.229Z,99.90
2019-05-22T06:33:17.114Z,99.90
2019-05-22T06:35:48.351Z,99.90
2019-05-22T06:38:46.496Z,99.90
2019-05-22T06:41:15.812Z,99.90
2019-05-22T06:43:47.900Z,99.90
2019-05-22T06:46:20.033Z,99.90
2019-05-22T06:48:48.807Z,99.90
2019-05-22T06:51:19.691Z,99.90
2019-05-22T06:53:47.428Z,99.90
2019-05-22T06:56:16.856Z,99.90
2019-05-22T06:58:45.364Z,99.90
2019-05-22T07:01:14.108Z,99.90
2019-05-22T07:03:42.612Z,99.90
2019-05-22T07:06:11.648Z,99.90
2019-05-22T07:08:40.217Z,99.90
2019-05-22T07:11:09.588Z,99.90
2019-05-22T07:13:39.075Z,99.90
2019-05-22T07:16:07.825Z,99.90
2019-05-22T07:18:36.267Z,99.90
2019-05-22T07:21:06.479Z,99.90
2019-05-22T07:23:34.968Z,99.90
2019-05-22T07:26:04.077Z,99.90
2019-05-22T07:28:33.172Z,99.90
2019-05-22T07:31:02.232Z,99.90
2019-05-22T07:33:32.388Z,99.90
2019-05-22T07:36:13.533Z,99.90
2019-05-22T07:38:33.668Z,99.90
2019-05-22T07:41:04.039Z,99.90
2019-05-22T07:43:33.219Z,99.90
2019-05-22T07:46:01.739Z,99.90
2019-05-22T07:48:31.395Z,99.90
2019-05-22T07:51:02.130Z,99.90
2019-05-22T07:53:31.311Z,99.90
2019-05-22T07:56:06.275Z,99.90
2019-05-22T07:58:35.091Z,99.90
2019-05-22T08:01:05.227Z,99.90
2019-05-22T08:03:36.008Z,99.90
2019-05-22T08:06:05.580Z,99.90
2019-05-22T08:08:55.050Z,99.90
2019-05-22T08:11:26.234Z,99.90
2019-05-22T08:13:55.807Z,99.90
2019-05-22T08:16:25.264Z,99.90
2019-05-22T08:18:54.153Z,99.90
2019-05-22T08:21:23.768Z,99.90
2019-05-22T08:24:11.944Z,99.90
2019-05-22T08:26:53.789Z,99.90
2019-05-22T08:29:11.844Z,99.90
2019-05-22T08:31:40.977Z,99.90
2019-05-22T08:34:09.847Z,99.90
2019-05-22T08:36:39.662Z,99.90
2019-05-22T08:39:09.816Z,99.90
2019-05-22T08:41:41.090Z,99.90
2019-05-22T08:44:16.730Z,99.90
2019-05-22T08:46:40.231Z,99.90
2019-05-22T08:49:09.280Z,99.90
2019-05-22T08:51:39.776Z,99.90
2019-05-22T08:54:09.399Z,99.90
2019-05-22T08:56:40.581Z,99.90
2019-05-22T08:59:18.864Z,99.90
2019-05-22T09:01:40.163Z,99.90
2019-05-22T09:04:09.275Z,99.90
2019-05-22T09:06:37.977Z,99.90
2019-05-22T09:09:07.087Z,99.90
2019-05-22T09:11:35.982Z,99.90
2019-05-22T09:14:04.693Z,99.90
2019-05-22T09:16:33.418Z,99.90
2019-05-22T09:19:02.253Z,99.90
2019-05-22T09:21:30.695Z,99.90
2019-05-22T09:24:01.515Z,99.90
2019-05-22T09:26:30.712Z,99.90
2019-05-22T09:28:59.644Z,99.90
2019-05-22T09:31:28.162Z,99.90
2019-05-22T09:33:56.971Z,99.90
2019-05-22T09:36:25.828Z,99.90
2019-05-22T09:38:55.429Z,99.90
2019-05-22T09:41:23.865Z,99.90
2019-05-22T09:43:52.294Z,99.90
2019-05-22T09:46:21.126Z,99.90
2019-05-22T09:48:49.763Z,99.90
2019-05-22T09:51:18.582Z,99.90
2019-05-22T09:53:47.958Z,99.90
2019-05-22T09:56:17.051Z,99.90
2019-05-22T09:58:45.760Z,99.90
2019-05-22T10:01:14.866Z,99.90
2019-05-22T10:03:43.856Z,99.90
2019-05-22T10:06:15.423Z,99.90
2019-05-22T10:08:43.995Z,99.90
2019-05-22T10:11:12.695Z,99.90
2019-05-22T10:13:41.135Z,99.90
2019-05-22T10:16:10.074Z,99.90
2019-05-22T10:18:38.503Z,99.90
2019-05-22T10:21:07.673Z,99.90
2019-05-22T10:23:36.630Z,99.90
2019-05-22T10:26:05.855Z,99.90
2019-05-22T10:28:35.036Z,99.90
2019-05-22T10:31:03.886Z,99.90
2019-05-22T10:33:32.459Z,99.90
2019-05-22T10:36:01.656Z,99.90
2019-05-22T10:38:30.443Z,99.90
2019-05-22T10:41:00.816Z,99.90
2019-05-22T10:43:29.512Z,99.90
2019-05-22T10:45:58.653Z,99.90
2019-05-22T10:48:48.431Z,99.90
2019-05-22T10:51:16.875Z,99.90
2019-05-22T10:53:45.472Z,99.90
2019-05-22T10:56:14.192Z,99.90
2019-05-22T10:58:42.711Z,99.90
2019-05-22T11:01:11.141Z,99.90
2019-05-22T11:03:39.752Z,99.90
2019-05-22T11:06:08.614Z,99.90
2019-05-22T11:08:37.448Z,99.90
2019-05-22T11:11:06.158Z,99.90
2019-05-22T11:13:34.812Z,99.90
2019-05-22T11:16:04.090Z,99.90
2019-05-22T11:18:53.616Z,99.90
2019-05-22T11:21:22.308Z,99.90
2019-05-22T11:23:52.985Z,99.90
2019-05-22T11:26:21.803Z,99.90
2019-05-22T11:28:51.068Z,99.90
2019-05-22T11:31:20.096Z,99.90
2019-05-22T11:33:48.797Z,99.90
2019-05-22T11:36:19.651Z,99.90
2019-05-22T11:39:09.305Z,99.90
2019-05-22T11:41:37.929Z,99.90
2019-05-22T11:44:07.105Z,99.90
2019-05-22T11:46:35.899Z,99.90
2019-05-22T11:49:05.031Z,99.90
2019-05-22T11:51:33.529Z,99.90
2019-05-22T11:54:09.019Z,99.90
2019-05-22T11:56:33.528Z,99.90
2019-05-22T11:59:02.393Z,99.90
2019-05-22T12:01:31.198Z,99.90
2019-05-22T12:04:00.777Z,99.90
2019-05-22T12:06:30.551Z,99.90
2019-05-22T12:08:59.512Z,99.90
2019-05-22T12:11:28.680Z,99.90
2019-05-22T12:13:58.521Z,99.90
2019-05-22T12:16:28.831Z,99.90
2019-05-22T12:18:58.934Z,99.90
2019-05-22T12:21:28.748Z,99.90
2019-05-22T12:23:57.414Z,99.90
2019-05-22T12:26:27.558Z,99.90
2019-05-22T12:28:56.609Z,99.90
2019-05-22T12:31:25.312Z,99.90
2019-05-22T12:33:54.596Z,99.90
2019-05-22T12:36:23.761Z,99.90
2019-05-22T12:38:52.601Z,99.90
2019-05-22T12:41:21.214Z,99.90
2019-05-22T12:43:50.510Z,99.90
2019-05-22T12:46:20.829Z,99.90
2019-05-22T12:48:49.437Z,99.90
2019-05-22T12:51:19.374Z,99.90
2019-05-22T12:53:48.634Z,99.90
2019-05-22T12:56:18.421Z,99.90
2019-05-22T12:58:47.200Z,99.90
2019-05-22T13:01:16.036Z,99.90
2019-05-22T13:03:46.913Z,99.90
2019-05-22T13:06:15.951Z,99.90
2019-05-22T13:08:45.365Z,99.90
2019-05-22T13:11:14.267Z,99.90
2019-05-22T13:13:42.975Z,99.90
2019-05-22T13:16:11.801Z,99.90
2019-05-22T13:18:40.943Z,99.90
2019-05-22T13:21:12.762Z,99.90
2019-05-22T13:23:49.694Z,99.90
2019-05-22T13:26:19.471Z,99.90
2019-05-22T13:28:48.654Z,99.90
2019-05-22T13:31:18.835Z,99.90
2019-05-22T13:33:47.446Z,99.90
2019-05-22T13:36:18.585Z,99.90
2019-05-22T13:38:48.294Z,99.90
2019-05-22T13:41:17.394Z,99.90
2019-05-22T13:43:46.896Z,99.90
2019-05-22T13:46:15.740Z,99.90
2019-05-22T13:48:44.558Z,99.90
2019-05-22T13:51:14.332Z,99.90
2019-05-22T13:53:43.590Z,99.90
2019-05-22T13:56:13.343Z,99.90
2019-05-22T13:58:42.289Z,99.90
2019-05-22T14:01:11.096Z,99.90
2019-05-22T14:03:40.198Z,99.90
2019-05-22T14:06:28.640Z,99.90
2019-05-22T14:08:57.430Z,99.90
2019-05-22T14:11:25.987Z,99.90
2019-05-22T14:13:55.227Z,99.90
2019-05-22T14:16:23.795Z,98.80
2019-05-22T14:18:52.247Z,98.30
2019-05-22T14:21:40.031Z,98.60
2019-05-22T14:24:29.675Z,98.30
2019-05-22T14:26:58.527Z,98.80
2019-05-22T14:29:27.180Z,98.00
2019-05-22T14:31:58.708Z,98.90
2019-05-22T14:34:28.110Z,98.80
2019-05-22T14:36:57.171Z,98.40
2019-05-22T14:39:26.251Z,98.60
2019-05-22T14:41:54.928Z,99.20
2019-05-22T14:44:23.704Z,99.90
2019-05-22T14:46:52.139Z,99.70
2019-05-22T14:49:21.022Z,98.70
2019-05-22T14:51:50.345Z,98.10
2019-05-22T14:54:19.519Z,97.50
2019-05-22T14:56:48.889Z,97.50
2019-05-22T14:59:24.027Z,98.70
2019-05-22T15:02:13.316Z,99.20
2019-05-22T15:04:43.046Z,99.30
2019-05-22T15:07:14.864Z,99.50
2019-05-22T15:09:43.337Z,99.40
2019-05-22T15:12:11.768Z,97.90
2019-05-22T15:14:40.836Z,98.40
2019-05-22T15:17:09.608Z,99.10
2019-05-22T15:19:39.337Z,99.10
2019-05-22T15:22:09.784Z,98.20
2019-05-22T15:24:38.556Z,98.80
2019-05-22T15:27:08.191Z,98.80
2019-05-22T15:29:36.704Z,98.80
2019-05-22T15:32:06.204Z,99.00
2019-05-22T15:34:35.552Z,98.60
2019-05-22T15:37:05.625Z,96.20
2019-05-22T15:39:35.340Z,96.30
2019-05-22T15:42:05.686Z,96.00
2019-05-22T15:44:34.906Z,96.20
2019-05-22T15:47:03.696Z,95.60
2019-05-22T15:49:32.896Z,95.30
2019-05-22T15:52:04.654Z,95.60
2019-05-22T15:54:34.340Z,95.70
2019-05-22T15:57:10.683Z,95.50
2019-05-22T15:59:40.536Z,94.20
2019-05-22T16:02:09.848Z,95.10
2019-05-22T16:04:40.240Z,95.00
2019-05-22T16:07:09.881Z,94.70
2019-05-22T16:09:38.474Z,94.80
2019-05-22T16:12:07.344Z,95.40
2019-05-22T16:14:38.041Z,96.40
2019-05-22T16:17:08.204Z,96.70
2019-05-22T16:19:37.071Z,96.90
2019-05-22T16:22:08.735Z,97.30
2019-05-22T16:24:39.856Z,97.30
2019-05-22T16:27:10.120Z,97.90
2019-05-22T16:29:39.362Z,97.80
2019-05-22T16:32:10.193Z,97.20
2019-05-22T16:34:41.446Z,97.50
2019-05-22T16:37:10.428Z,96.80
2019-05-22T16:39:40.334Z,96.80
2019-05-22T16:42:10.330Z,95.70
2019-05-22T16:44:39.739Z,95.50
2019-05-22T16:47:33.362Z,95.40
2019-05-22T16:50:00.379Z,95.10
2019-05-22T16:52:29.778Z,94.20
2019-05-22T16:54:58.539Z,94.00
2019-05-22T16:57:27.038Z,93.80
2019-05-22T16:59:55.814Z,93.70
2019-05-22T17:02:25.181Z,94.20
2019-05-22T17:04:54.559Z,94.60
2019-05-22T17:07:23.500Z,94.20
2019-05-22T17:09:53.841Z,94.20
2019-05-22T17:12:23.187Z,95.00
2019-05-22T17:14:53.498Z,93.80
2019-05-22T17:17:22.673Z,93.10
2019-05-22T17:19:51.639Z,93.00
2019-05-22T17:22:20.873Z,93.10
2019-05-22T17:24:49.408Z,92.80
2019-05-22T17:27:19.114Z,93.10
2019-05-22T17:30:09.322Z,93.30
2019-05-22T17:32:38.356Z,94.00
2019-05-22T17:35:29.905Z,94.30
2019-05-22T17:37:59.013Z,94.20
2019-05-22T17:40:28.459Z,94.50
2019-05-22T17:42:57.488Z,94.70
2019-05-22T17:45:29.024Z,94.90
2019-05-22T17:47:58.356Z,95.00
2019-05-22T17:50:28.135Z,94.50
2019-05-22T17:52:58.167Z,95.10
2019-05-22T17:55:27.820Z,95.20
2019-05-22T17:57:56.543Z,95.40
2019-05-22T18:00:45.720Z,95.30
2019-05-22T18:03:14.493Z,95.60
2019-05-22T18:05:43.473Z,95.60
2019-05-22T18:08:14.132Z,95.70
2019-05-22T18:11:03.692Z,95.90
2019-05-22T18:13:33.728Z,95.40
2019-05-22T18:16:04.605Z,95.70
2019-05-22T18:18:52.300Z,96.00
2019-05-22T18:21:21.287Z,96.10
2019-05-22T18:23:49.954Z,96.70
2019-05-22T18:26:19.133Z,96.40
2019-05-22T18:28:47.719Z,96.70
2019-05-22T18:31:16.473Z,97.00
2019-05-22T18:33:46.184Z,97.20
2019-05-22T18:36:14.623Z,97.20
2019-05-22T18:38:43.067Z,97.70
2019-05-22T18:41:11.677Z,97.90
2019-05-22T18:43:41.079Z,98.10
2019-05-22T18:46:09.775Z,98.30
2019-05-22T18:48:39.167Z,98.60
2019-05-22T18:51:09.604Z,99.20
2019-05-22T18:53:38.997Z,99.40
2019-05-22T18:56:10.798Z,99.70
2019-05-22T18:58:39.459Z,99.90
2019-05-22T19:01:08.415Z,99.90
2019-05-22T19:03:36.843Z,99.90
2019-05-22T19:06:06.208Z,99.90
2019-05-22T19:08:35.319Z,99.90
2019-05-22T19:11:04.661Z,99.90
2019-05-22T19:13:33.972Z,99.90
2019-05-22T19:16:02.669Z,99.90
2019-05-22T19:18:31.395Z,99.90
2019-05-22T19:21:00.164Z,99.90
2019-05-22T19:23:29.289Z,99.90
2019-05-22T19:25:57.720Z,99.90
2019-05-22T19:28:42.243Z,99.90
2019-05-22T19:30:58.020Z,99.90
2019-05-22T19:33:27.632Z,99.90
2019-05-22T19:35:57.546Z,99.90
2019-05-22T19:38:27.950Z,99.90
2019-05-22T19:40:57.200Z,99.90
2019-05-22T19:43:26.391Z,99.90
2019-05-22T19:45:58.822Z,99.90
2019-05-22T19:48:28.217Z,99.90
2019-05-22T19:50:56.922Z,99.90
2019-05-22T19:53:25.363Z,99.90
2019-05-22T19:55:54.532Z,99.90
2019-05-22T19:58:23.740Z,99.90
2019-05-22T20:00:52.522Z,99.90
2019-05-22T20:03:21.574Z,99.90
2019-05-22T20:05:50.648Z,99.90
2019-05-22T20:08:19.749Z,99.90
2019-05-22T20:10:48.419Z,99.90
2019-05-22T20:13:16.938Z,99.90
2019-05-22T20:15:45.903Z,99.90
2019-05-22T20:18:14.698Z,99.90
2019-05-22T20:20:43.196Z,99.90
2019-05-22T20:23:12.096Z,99.90
2019-05-22T20:25:40.796Z,99.90
2019-05-22T20:28:11.407Z,99.90
2019-05-22T20:30:40.177Z,99.90
2019-05-22T20:33:08.683Z,99.90
2019-05-22T20:35:37.796Z,99.90
2019-05-22T20:38:07.442Z,99.90
2019-05-22T20:40:36.737Z,99.90
2019-05-22T20:43:26.259Z,99.90
2019-05-22T20:45:55.797Z,99.90
2019-05-22T20:48:29.265Z,99.90
2019-05-22T20:50:59.617Z,99.90
2019-05-22T20:53:28.736Z,99.90
2019-05-22T20:55:58.371Z,99.90
2019-05-22T20:58:28.835Z,99.90
2019-05-22T21:00:57.371Z,99.90
2019-05-22T21:03:28.177Z,99.90
2019-05-22T21:05:57.533Z,99.90
2019-05-22T21:08:29.056Z,99.90
2019-05-22T21:10:59.580Z,99.90
2019-05-22T21:13:28.456Z,99.90
2019-05-22T21:15:56.974Z,99.90
2019-05-22T21:18:28.651Z,99.90
2019-05-22T21:20:58.202Z,99.90
2019-05-22T21:23:28.457Z,99.90
2019-05-22T21:25:57.044Z,99.90
2019-05-22T21:28:26.809Z,99.90
2019-05-22T21:30:55.555Z,99.90
2019-05-22T21:33:25.373Z,99.90
2019-05-22T21:35:54.109Z,99.90
2019-05-22T21:38:23.574Z,99.90
2019-05-22T21:40:53.968Z,99.90
2019-05-22T21:43:23.351Z,99.90
2019-05-22T21:45:52.472Z,99.90
2019-05-22T21:48:21.872Z,99.90
2019-05-22T21:50:50.294Z,99.90
2019-05-22T21:53:19.338Z,99.90
2019-05-22T21:56:02.067Z,99.90
2019-05-22T21:58:18.797Z,99.90
2019-05-22T22:00:57.266Z,99.90
2019-05-22T22:03:29.774Z,99.90
2019-05-22T22:06:00.162Z,99.90
2019-05-22T22:08:29.429Z,99.90
2019-05-22T22:10:58.594Z,99.90
2019-05-22T22:13:27.300Z,99.90
2019-05-22T22:15:56.619Z,99.90
2019-05-22T22:18:25.948Z,99.90
2019-05-22T22:20:55.007Z,99.90
2019-05-22T22:23:25.671Z,99.90
2019-05-22T22:25:57.239Z,99.90
2019-05-22T22:28:27.376Z,99.90
2019-05-22T22:31:04.521Z,99.90
2019-05-22T22:33:35.176Z,99.90
2019-05-22T22:36:04.460Z,99.90
2019-05-22T22:38:33.337Z,99.90
2019-05-22T22:41:02.757Z,99.90
2019-05-22T22:43:34.217Z,99.90
2019-05-22T22:46:08.763Z,99.90
2019-05-22T22:48:39.940Z,99.90
2019-05-22T22:51:11.798Z,99.90
2019-05-22T22:53:42.007Z,99.90
2019-05-22T22:56:11.715Z,99.90
2019-05-22T22:58:41.384Z,99.90
2019-05-22T23:01:13.261Z,99.90
2019-05-22T23:03:43.032Z,99.90
2019-05-22T23:06:14.411Z,99.90
2019-05-22T23:08:42.857Z,99.90
2019-05-22T23:11:13.431Z,99.90
2019-05-22T23:14:03.131Z,99.90
2019-05-22T23:16:32.543Z,99.90
2019-05-22T23:19:22.174Z,99.90
2019-05-22T23:21:50.297Z,99.90
2019-05-22T23:24:19.664Z,99.90
2019-05-22T23:26:49.053Z,99.90
2019-05-22T23:29:17.659Z,99.90
2019-05-22T23:31:46.452Z,99.90
2019-05-22T23:34:15.451Z,99.90
2019-05-22T23:37:06.635Z,99.90
2019-05-22T23:39:36.077Z,99.90
2019-05-22T23:42:08.256Z,99.90
2019-05-22T23:44:38.436Z,99.90
2019-05-22T23:47:08.096Z,99.90
2019-05-22T23:49:37.968Z,99.90
2019-05-22T23:52:08.311Z,99.90
2019-05-22T23:54:37.709Z,99.90
2019-05-22T23:57:06.396Z,99.90
2019-05-22T23:59:36.708Z,99.90
